Time;durP1;ratioP1;P1;durP2;ratioP2;P2;SDS_P1;SDS_P2;PMS_P1;PMS_P2;Temp;Humidity;BMP_temperature;BMP_pressure;BME280_temperature;BME280_humidity;BME280_pressure;Samples;Min_cycle;Max_cycle;Signal;HPM_P1;HPM_P2
2024/01/31 00:01:09;;;;;;;;;;;;;;;13.85;72.87;101912.06;10333110;28;96747;-81
2024/01/31 00:06:12;;;;;;;;;;;;;;;13.79;72.94;101919.31;10333044;28;97237;-81
2024/01/31 00:11:17;;;;;;;;;;;;;;;13.79;73.24;101914.03;10334154;28;97274;-80
2024/01/31 00:16:21;;;;;;;;;;;;;;;13.74;73.57;101916.81;10332272;28;96888;-80
2024/01/31 00:21:24;;;;;;;;;;;;;;;13.75;73.60;101912.34;10332324;28;97583;-81
2024/01/31 00:26:31;;;;;;;;;;;;;;;13.71;73.88;101919.50;10332085;28;97068;-81
2024/01/31 00:31:34;;;;;;;;;;;;;;;13.67;73.69;101921.38;10331806;28;96675;-81
2024/01/31 00:36:38;;;;;;;;;;;;;;;13.65;73.42;101927.63;10331918;28;96731;-81
2024/01/31 00:41:43;;;;;;;;;;;;;;;13.53;74.46;101927.94;10332465;28;96784;-81
2024/01/31 00:46:48;;;;;;;;;;;;;;;13.56;74.37;101925.19;10351607;22;97999;-81
2024/01/31 00:51:51;;;;;;;;;;;;;;;13.53;74.11;101930.56;10372552;28;97345;-80
2024/01/31 00:56:55;;;;;;;;;;;;;;;13.64;73.71;101925.88;10372546;28;97188;-80
2024/01/31 01:01:59;;;;;;;;;;;;;;;13.56;74.13;101928.72;10374032;28;96742;-80
2024/01/31 01:07:02;;;;;;;;;;;;;;;13.65;73.63;101923.19;10372083;28;97338;-80
2024/01/31 01:12:07;;;;;;;;;;;;;;;13.66;73.20;101919.63;10371651;28;97579;-81
2024/01/31 01:17:10;;;;;;;;;;;;;;;13.70;73.30;101931.00;10371249;28;96779;-81
2024/01/31 01:22:13;;;;;;;;;;;;;;;13.64;73.32;101929.38;10371953;28;96767;-81
2024/01/31 01:27:18;;;;;;;;;;;;;;;13.56;73.82;101922.56;10371716;28;96776;-80
2024/01/31 01:32:21;;;;;;;;;;;;;;;13.53;73.67;101925.28;10372158;28;96723;-81
2024/01/31 01:37:24;;;;;;;;;;;;;;;13.49;73.77;101921.84;10371500;28;96571;-81
2024/01/31 01:42:29;;;;;;;;;;;;;;;13.46;74.04;101929.88;10371409;28;97555;-81
2024/01/31 01:47:32;;;;;;;;;;;;;;;13.42;74.51;101928.19;10348183;28;100129;-81
2024/01/31 01:52:36;;;;;;;;;;;;;;;13.39;74.46;101930.91;10331028;28;97699;-81
2024/01/31 01:57:41;;;;;;;;;;;;;;;13.43;74.17;101932.56;10329800;28;97054;-80
2024/01/31 02:02:44;;;;;;;;;;;;;;;13.39;74.44;101930.91;10329591;28;97650;-81
2024/01/31 02:07:48;;;;;;;;;;;;;;;13.38;74.07;101925.69;10328720;28;97524;-80
2024/01/31 02:12:53;;;;;;;;;;;;;;;13.37;74.41;101937.13;10329190;28;97160;-81
2024/01/31 02:17:56;;;;;;;;;;;;;;;13.34;74.64;101934.56;10328984;28;97462;-80
2024/01/31 02:23:01;;;;;;;;;;;;;;;13.29;74.75;101944.41;10329666;28;96764;-81
2024/01/31 02:28:04;;;;;;;;;;;;;;;13.23;74.57;101947.16;10334415;28;97147;-82
2024/01/31 02:33:08;;;;;;;;;;;;;;;13.28;74.57;101954.09;10336265;28;97534;-81
2024/01/31 02:38:13;;;;;;;;;;;;;;;13.24;74.59;101952.41;10332018;28;97119;-80
2024/01/31 02:43:16;;;;;;;;;;;;;;;13.27;74.50;101956.78;10310125;28;97487;-81
2024/01/31 02:48:19;;;;;;;;;;;;;;;13.28;74.50;101969.06;10323079;28;97526;-81
2024/01/31 02:53:24;;;;;;;;;;;;;;;13.28;74.31;101956.75;10335122;28;97226;-80
2024/01/31 02:58:27;;;;;;;;;;;;;;;13.23;74.43;101961.25;10359814;28;97413;-80
2024/01/31 03:03:30;;;;;;;;;;;;;;;13.21;74.44;101962.19;10418215;28;96820;-81
2024/01/31 03:08:35;;;;;;;;;;;;;;;13.10;74.64;101966.88;10417588;28;96754;-81
2024/01/31 03:13:38;;;;;;;;;;;;;;;13.08;74.78;101964.28;10417746;28;96766;-81
2024/01/31 03:18:41;;;;;;;;;;;;;;;13.09;74.89;101967.75;10377324;28;96756;-80
2024/01/31 03:23:46;;;;;;;;;;;;;;;13.03;75.15;101974.09;10375963;28;97063;-81
2024/01/31 03:28:49;;;;;;;;;;;;;;;13.01;75.08;101981.16;10375487;28;96784;-81
2024/01/31 03:33:52;;;;;;;;;;;;;;;12.93;75.26;101983.09;10376482;28;97391;-81
2024/01/31 03:38:58;;;;;;;;;;;;;;;12.92;75.58;101986.66;10347324;28;97029;-80
2024/01/31 03:44:02;;;;;;;;;;;;;;;12.91;75.36;101981.41;10369001;28;96851;-80
2024/01/31 03:49:05;;;;;;;;;;;;;;;12.90;75.39;101985.81;10374097;28;97031;-79
2024/01/31 03:54:10;;;;;;;;;;;;;;;12.90;75.54;101984.94;10374256;28;96823;-80
2024/01/31 03:59:13;;;;;;;;;;;;;;;12.84;75.87;101985.06;10374424;28;96723;-80
2024/01/31 04:04:16;;;;;;;;;;;;;;;12.82;75.83;101993.03;10374271;28;96748;-81
2024/01/31 04:09:21;;;;;;;;;;;;;;;12.75;75.94;101990.53;10374773;28;96677;-81
2024/01/31 04:14:24;;;;;;;;;;;;;;;12.79;75.64;101987.78;10373449;28;96843;-81
2024/01/31 04:19:27;;;;;;;;;;;;;;;12.77;75.66;101988.75;10374007;28;96722;-80
2024/01/31 04:24:31;;;;;;;;;;;;;;;12.82;75.77;101984.22;10375116;28;96681;-81
2024/01/31 04:29:34;;;;;;;;;;;;;;;12.90;75.17;101998.13;10373697;28;97187;-80
2024/01/31 04:34:38;;;;;;;;;;;;;;;12.90;74.97;101992.84;10373652;28;96826;-81
2024/01/31 04:39:43;;;;;;;;;;;;;;;12.89;75.11;101992.00;10378560;28;97021;-80
2024/01/31 04:44:46;;;;;;;;;;;;;;;12.82;75.39;102000.09;10331754;28;96691;-81
2024/01/31 04:49:49;;;;;;;;;;;;;;;12.78;75.25;102003.69;10330713;28;97087;-80
2024/01/31 04:54:55;;;;;;;;;;;;;;;12.79;75.12;102006.28;10331557;28;97391;-80
2024/01/31 04:59:58;;;;;;;;;;;;;;;12.74;75.17;102004.66;10365847;28;96868;-81
2024/01/31 05:05:01;;;;;;;;;;;;;;;12.64;75.61;102011.88;10372693;28;96718;-80
2024/01/31 05:10:08;;;;;;;;;;;;;;;12.59;75.58;102016.38;10372613;28;97084;-81
2024/01/31 05:15:12;;;;;;;;;;;;;;;12.57;75.51;102015.53;10373641;28;96987;-79
2024/01/31 05:20:15;;;;;;;;;;;;;;;12.55;75.92;102019.97;10372175;28;96626;-80
2024/01/31 05:25:20;;;;;;;;;;;;;;;12.52;75.79;102025.31;10372127;28;97161;-80
2024/01/31 05:30:23;;;;;;;;;;;;;;;12.50;75.83;102029.75;10370986;28;96797;-81
2024/01/31 05:35:26;;;;;;;;;;;;;;;12.46;75.94;102023.66;10371551;28;96652;-80
2024/01/31 05:40:30;;;;;;;;;;;;;;;12.44;75.92;102025.47;10365201;28;96728;-80
2024/01/31 05:45:35;;;;;;;;;;;;;;;12.38;76.13;102030.84;10357396;28;96922;-81
2024/01/31 05:50:38;;;;;;;;;;;;;;;12.30;76.46;102035.41;10401770;28;96684;-80
2024/01/31 05:55:45;;;;;;;;;;;;;;;12.27;76.77;102037.25;10412596;28;96722;-80
2024/01/31 06:00:49;;;;;;;;;;;;;;;12.21;76.75;102039.97;10416459;27;97011;-80
2024/01/31 06:05:52;;;;;;;;;;;;;;;12.22;76.71;102044.38;10420234;28;97413;-81
2024/01/31 06:11:02;;;;;;;;;;;;;;;12.15;76.87;102037.47;10420023;28;96802;-80
2024/01/31 06:16:06;;;;;;;;;;;;;;;12.16;76.96;102049.75;10419578;28;96758;-81
2024/01/31 06:21:09;;;;;;;;;;;;;;;12.09;76.98;102053.38;10417407;27;96740;-80
2024/01/31 06:26:14;;;;;;;;;;;;;;;12.06;77.09;102049.06;10419520;28;97226;-80
2024/01/31 06:31:25;;;;;;;;;;;;;;;12.06;76.99;102061.38;10388801;28;97440;-81
2024/01/31 06:36:28;;;;;;;;;;;;;;;12.03;77.06;102069.34;10336019;28;96715;-80
2024/01/31 06:41:35;;;;;;;;;;;;;;;12.03;77.33;102066.69;10352145;28;96794;-81
2024/01/31 06:46:38;;;;;;;;;;;;;;;12.04;77.14;102071.06;10335099;28;96803;-80
2024/01/31 06:51:41;;;;;;;;;;;;;;;12.01;77.56;102065.84;10335388;28;96878;-80
2024/01/31 06:56:46;;;;;;;;;;;;;;;11.92;77.64;102066.88;10352522;28;96712;-80
2024/01/31 07:01:49;;;;;;;;;;;;;;;11.93;77.42;102073.00;10376323;28;96699;-81
2024/01/31 07:06:53;;;;;;;;;;;;;;;11.84;78.09;102083.72;10376311;28;96712;-80
2024/01/31 07:11:59;;;;;;;;;;;;;;;11.77;78.13;102087.34;10374630;28;97276;-80
2024/01/31 07:17:02;;;;;;;;;;;;;;;11.78;77.71;102089.97;10417385;27;96837;-79
2024/01/31 07:22:05;;;;;;;;;;;;;;;11.75;78.47;102089.13;10417193;28;96634;-80
2024/01/31 07:27:10;;;;;;;;;;;;;;;11.73;78.16;102086.53;10402651;28;96761;-80
2024/01/31 07:32:13;;;;;;;;;;;;;;;11.75;78.38;102092.66;10348719;28;96685;-81
2024/01/31 07:37:16;;;;;;;;;;;;;;;11.77;78.08;102095.25;10333931;28;96646;-81
2024/01/31 07:42:21;;;;;;;;;;;;;;;11.71;78.61;102112.03;10333674;28;96759;-81
2024/01/31 07:47:24;;;;;;;;;;;;;;;11.75;78.05;102110.22;10347080;28;96924;-80
2024/01/31 07:52:27;;;;;;;;;;;;;;;11.74;77.96;102114.63;10375014;28;97263;-81
2024/01/31 07:57:32;;;;;;;;;;;;;;;11.73;78.40;102112.91;10374615;28;96695;-80
2024/01/31 08:02:35;;;;;;;;;;;;;;;11.76;77.87;102111.97;10373534;28;96589;-81
2024/01/31 08:07:38;;;;;;;;;;;;;;;11.78;77.62;102110.19;10374615;28;96802;-81
2024/01/31 08:12:46;;;;;;;;;;;;;;;11.74;77.34;102119.03;10374193;28;96676;-80
2024/01/31 08:17:49;;;;;;;;;;;;;;;11.68;77.82;102122.66;10373308;28;96959;-80
2024/01/31 08:22:53;;;;;;;;;;;;;;;11.67;78.12;102118.25;10374314;28;96949;-80
2024/01/31 08:27:57;;;;;;;;;;;;;;;11.69;78.42;102126.13;10373614;28;97143;-80
2024/01/31 08:33:01;;;;;;;;;;;;;;;11.77;77.56;102125.13;10373621;28;97319;-80
2024/01/31 08:38:04;;;;;;;;;;;;;;;11.85;77.61;102138.19;10375102;28;97773;-81
2024/01/31 08:43:09;;;;;;;;;;;;;;;11.90;77.47;102147.81;10350116;28;97351;-81
2024/01/31 08:48:12;;;;;;;;;;;;;;;12.04;77.21;102137.91;10373069;28;97304;-81
2024/01/31 08:53:15;;;;;;;;;;;;;;;12.17;76.48;102142.09;10371719;28;96940;-81
2024/01/31 08:58:20;;;;;;;;;;;;;;;12.36;75.96;102148.81;10409046;28;96844;-80
2024/01/31 09:03:23;;;;;;;;;;;;;;;12.53;75.26;102154.66;10414264;28;96991;-80
2024/01/31 09:08:26;;;;;;;;;;;;;;;12.58;74.88;102157.25;10414200;28;97358;-81
2024/01/31 09:13:31;;;;;;;;;;;;;;;12.66;74.56;102159.75;10413074;28;96864;-81
2024/01/31 09:18:35;;;;;;;;;;;;;;;12.76;74.06;102162.22;10413379;27;96640;-80
2024/01/31 09:23:43;;;;;;;;;;;;;;;12.91;73.75;102159.31;10390390;28;97350;-81
2024/01/31 09:28:48;;;;;;;;;;;;;;;13.01;73.22;102162.63;10379241;28;96724;-80
2024/01/31 09:33:52;;;;;;;;;;;;;;;13.17;72.89;102156.16;10412576;28;96810;-81
2024/01/31 09:38:55;;;;;;;;;;;;;;;13.33;72.00;102162.84;10413369;27;97078;-81
2024/01/31 09:44:00;;;;;;;;;;;;;;;13.46;71.61;102164.34;10376680;28;96724;-80
2024/01/31 09:49:04;;;;;;;;;;;;;;;13.57;71.03;102168.50;10371352;28;97524;-82
2024/01/31 09:54:08;;;;;;;;;;;;;;;13.68;71.28;102163.88;10371178;28;96672;-81
2024/01/31 09:59:13;;;;;;;;;;;;;;;13.74;70.98;102167.28;10371035;28;96867;-81
2024/01/31 10:04:16;;;;;;;;;;;;;;;13.85;70.14;102160.81;10371600;28;97708;-81
2024/01/31 10:09:20;;;;;;;;;;;;;;;13.93;69.59;102153.59;10370590;28;96786;-80
2024/01/31 10:14:24;;;;;;;;;;;;;;;14.11;69.14;102165.53;10370640;28;96935;-81
2024/01/31 10:19:28;;;;;;;;;;;;;;;14.09;69.06;102155.00;10375517;28;97153;-80
2024/01/31 10:24:31;;;;;;;;;;;;;;;14.16;68.63;102167.19;10403388;28;96710;-80
2024/01/31 10:29:38;;;;;;;;;;;;;;;14.40;68.16;102174.53;10370147;28;96711;-81
2024/01/31 10:34:42;;;;;;;;;;;;;;;14.43;67.63;102174.47;10368861;28;96701;-81
2024/01/31 10:40:06;;;;;;;;;;;;;;;14.45;66.92;102174.44;10401159;28;97250;-81
2024/01/31 10:45:11;;;;;;;;;;;;;;;14.65;66.74;102165.06;10369198;28;96795;-81
2024/01/31 10:50:16;;;;;;;;;;;;;;;14.74;66.71;102166.59;10376990;28;97043;-81
2024/01/31 10:55:19;;;;;;;;;;;;;;;14.78;66.16;102165.63;10377289;28;96763;-80
2024/01/31 11:00:25;;;;;;;;;;;;;;;14.96;66.23;102162.47;10376535;28;96972;-81
2024/01/31 11:05:30;;;;;;;;;;;;;;;15.18;66.18;102160.09;10376562;28;97463;-81
2024/01/31 11:10:33;;;;;;;;;;;;;;;15.15;65.82;102147.78;10381405;28;96733;-80
2024/01/31 11:15:38;;;;;;;;;;;;;;;15.29;64.88;102150.94;10417344;28;97197;-80
2024/01/31 11:20:46;;;;;;;;;;;;;;;15.48;65.08;102148.63;10382859;27;97556;-81
2024/01/31 11:25:51;;;;;;;;;;;;;;;15.66;64.94;102142.78;10374650;28;96631;-81
2024/01/31 11:30:56;;;;;;;;;;;;;;;15.61;64.17;102140.22;10408683;28;96819;-81
2024/01/31 11:35:59;;;;;;;;;;;;;;;15.68;64.29;102151.56;10417189;28;97389;-82
2024/01/31 11:41:03;;;;;;;;;;;;;;;15.86;63.97;102145.66;10406503;28;96939;-81
2024/01/31 11:46:07;;;;;;;;;;;;;;;15.84;63.68;102137.75;10385147;28;96836;-80
2024/01/31 11:51:11;;;;;;;;;;;;;;;15.88;63.39;102127.91;10416197;28;96879;-81
2024/01/31 11:56:14;;;;;;;;;;;;;;;16.05;63.13;102117.59;10415859;27;97117;-81
2024/01/31 12:01:19;;;;;;;;;;;;;;;16.16;63.06;102115.47;10416082;28;97275;-80
2024/01/31 12:06:23;;;;;;;;;;;;;;;16.24;62.53;102102.81;10416034;28;96765;-80
2024/01/31 12:11:26;;;;;;;;;;;;;;;16.60;62.32;102103.38;10415508;28;96570;-80
2024/01/31 12:16:41;;;;;;;;;;;;;;;16.49;62.12;102089.59;10396865;28;97254;-81
2024/01/31 12:21:44;;;;;;;;;;;;;;;16.79;61.50;102096.50;10374448;28;96824;-81
2024/01/31 12:26:47;;;;;;;;;;;;;;;16.93;61.41;102097.72;10373703;28;96813;-81
2024/01/31 12:31:52;;;;;;;;;;;;;;;17.25;60.34;102085.00;10373518;28;96873;-81
2024/01/31 12:36:55;;;;;;;;;;;;;;;17.38;60.43;102094.28;10373862;28;97037;-80
2024/01/31 12:41:58;;;;;;;;;;;;;;;17.47;59.55;102085.94;10354599;28;96802;-81
2024/01/31 12:47:05;;;;;;;;;;;;;;;17.79;59.08;102080.22;10330927;28;96956;-80
2024/01/31 12:52:11;;;;;;;;;;;;;;;18.21;58.51;102074.94;10335558;28;96805;-81
2024/01/31 12:57:15;;;;;;;;;;;;;;;18.49;57.08;102073.69;10372760;28;97499;-80
2024/01/31 13:02:19;;;;;;;;;;;;;;;18.80;55.36;102059.91;10372383;28;97407;-81
2024/01/31 13:07:23;;;;;;;;;;;;;;;19.60;54.21;102054.34;10371395;28;96742;-81
2024/01/31 13:12:27;;;;;;;;;;;;;;;19.79;52.40;102055.16;10371766;28;96753;-81
2024/01/31 13:17:32;;;;;;;;;;;;;;;20.40;51.47;102052.97;10346859;22;97210;-81
2024/01/31 13:22:38;;;;;;;;;;;;;;;20.97;50.27;102046.34;10289625;28;96665;-82
2024/01/31 13:27:42;;;;;;;;;;;;;;;20.77;49.34;102039.41;10290226;28;96766;-80
2024/01/31 13:32:46;;;;;;;;;;;;;;;20.65;49.58;102044.56;10289665;28;97161;-81
2024/01/31 13:37:49;;;;;;;;;;;;;;;20.63;49.78;102038.41;10289064;28;97394;-81
2024/01/31 13:42:53;;;;;;;;;;;;;;;20.57;50.21;102034.25;10290825;28;97552;-81
2024/01/31 13:47:57;;;;;;;;;;;;;;;21.18;48.77;102029.16;10329344;28;97242;-81
2024/01/31 13:53:01;;;;;;;;;;;;;;;21.08;48.92;102027.91;10330109;28;97397;-82
2024/01/31 13:58:05;;;;;;;;;;;;;;;21.65;48.16;102013.94;10329120;28;97244;-82
2024/01/31 14:03:09;;;;;;;;;;;;;;;21.54;48.02;102020.88;10328994;28;96871;-82
2024/01/31 14:08:12;;;;;;;;;;;;;;;21.47;47.33;102005.16;10329510;28;96809;-81
2024/01/31 14:13:16;;;;;;;;;;;;;;;22.01;46.88;102005.59;10299051;28;97193;-81
2024/01/31 14:18:20;;;;;;;;;;;;;;;21.83;46.32;102002.16;10288276;28;96794;-82
2024/01/31 14:23:24;;;;;;;;;;;;;;;21.67;46.81;102004.00;10294417;28;96719;-81
2024/01/31 14:28:45;;;;;;;;;;;;;;;22.05;45.76;101999.13;10295262;28;97070;-81
2024/01/31 14:33:50;;;;;;;;;;;;;;;21.77;45.93;101998.97;10295638;28;96802;-81
2024/01/31 14:38:54;;;;;;;;;;;;;;;21.76;45.28;101992.75;10295097;28;96694;-81
2024/01/31 14:43:57;;;;;;;;;;;;;;;21.82;45.46;101987.03;10294657;28;97291;-82
2024/01/31 14:49:02;;;;;;;;;;;;;;;21.69;45.91;101988.72;10292940;28;96849;-81
2024/01/31 14:54:07;;;;;;;;;;;;;;;21.61;45.60;101993.63;10294958;28;96729;-81
2024/01/31 14:59:11;;;;;;;;;;;;;;;22.25;44.71;101991.59;10294068;28;97632;-82
2024/01/31 15:04:15;;;;;;;;;;;;;;;21.97;43.85;101983.44;10294487;28;97350;-81
2024/01/31 15:09:18;;;;;;;;;;;;;;;22.29;43.27;101985.09;10298350;28;97357;-81
2024/01/31 15:14:22;;;;;;;;;;;;;;;22.49;43.34;101981.19;10293427;28;96695;-81
2024/01/31 15:19:26;;;;;;;;;;;;;;;22.85;42.65;101975.38;10293223;28;97161;-81
2024/01/31 15:24:30;;;;;;;;;;;;;;;23.12;42.11;101973.63;10294404;28;97337;-82
2024/01/31 15:29:33;;;;;;;;;;;;;;;23.16;41.97;101980.53;10293618;28;96595;-82
2024/01/31 15:34:38;;;;;;;;;;;;;;;22.87;42.16;101982.38;10292397;28;96734;-82
2024/01/31 15:39:42;;;;;;;;;;;;;;;23.03;41.47;101984.94;10291601;28;96764;-82
2024/01/31 15:44:45;;;;;;;;;;;;;;;22.26;42.88;101996.00;10316376;28;97276;-81
2024/01/31 15:49:50;;;;;;;;;;;;;;;21.55;43.84;101987.78;10333954;28;96733;-82
2024/01/31 15:54:54;;;;;;;;;;;;;;;21.83;44.05;101991.44;10333650;28;96990;-81
2024/01/31 15:59:57;;;;;;;;;;;;;;;21.61;44.73;102000.81;10332664;28;96868;-81
2024/01/31 16:05:02;;;;;;;;;;;;;;;21.36;45.17;101996.00;10333221;28;97250;-81
2024/01/31 16:10:06;;;;;;;;;;;;;;;21.25;45.29;102010.00;10328123;28;96855;-80
2024/01/31 16:15:09;;;;;;;;;;;;;;;21.10;46.08;102005.44;10291762;28;96856;-81
2024/01/31 16:20:15;;;;;;;;;;;;;;;20.84;46.55;102018.53;10292178;28;97190;-81
2024/01/31 16:25:18;;;;;;;;;;;;;;;20.60;46.64;102023.38;10291404;28;96795;-80
2024/01/31 16:30:22;;;;;;;;;;;;;;;20.63;46.72;102020.56;10290024;28;96934;-81
2024/01/31 16:35:26;;;;;;;;;;;;;;;20.21;47.80;102022.75;10312451;28;97057;-80
2024/01/31 16:40:30;;;;;;;;;;;;;;;20.31;47.56;102024.91;10332173;28;97498;-81
2024/01/31 16:45:33;;;;;;;;;;;;;;;20.23;47.29;102028.91;10330440;28;97349;-81
2024/01/31 16:50:38;;;;;;;;;;;;;;;20.03;48.28;102035.25;10330808;28;96973;-80
2024/01/31 16:55:41;;;;;;;;;;;;;;;20.02;48.53;102038.88;10331342;28;96659;-80
2024/01/31 17:00:44;;;;;;;;;;;;;;;20.18;48.47;102053.19;10331421;28;96709;-81
2024/01/31 17:05:49;;;;;;;;;;;;;;;20.22;49.26;102052.06;10331965;28;96662;-81
2024/01/31 17:10:52;;;;;;;;;;;;;;;20.08;49.71;102065.28;10298296;28;96792;-80
2024/01/31 17:15:55;;;;;;;;;;;;;;;19.66;50.65;102064.75;10289660;28;96935;-80
2024/01/31 17:21:00;;;;;;;;;;;;;;;19.23;51.50;102073.88;10288941;28;96813;-81
2024/01/31 17:26:05;;;;;;;;;;;;;;;18.89;52.32;102084.34;10290264;28;96665;-81
2024/01/31 17:31:09;;;;;;;;;;;;;;;18.58;53.57;102088.44;10289493;28;96727;-81
2024/01/31 17:36:14;;;;;;;;;;;;;;;18.39;53.93;102100.78;10289363;28;96969;-80
2024/01/31 17:41:17;;;;;;;;;;;;;;;18.06;55.90;102103.94;10289922;28;96711;-80
2024/01/31 17:46:21;;;;;;;;;;;;;;;17.73;56.10;102109.75;10288832;28;97018;-80
2024/01/31 17:51:26;;;;;;;;;;;;;;;17.54;57.03;102114.06;10289168;28;96797;-80
2024/01/31 17:56:29;;;;;;;;;;;;;;;17.40;56.54;102124.34;10293332;28;97132;-79
2024/01/31 18:01:32;;;;;;;;;;;;;;;17.28;56.69;102115.03;10303276;28;97013;-81
2024/01/31 18:06:39;;;;;;;;;;;;;;;16.91;58.71;102131.47;10306084;28;96726;-80
2024/01/31 18:11:42;;;;;;;;;;;;;;;16.63;61.35;102128.06;10294765;28;96968;-80
2024/01/31 18:16:46;;;;;;;;;;;;;;;16.52;61.68;102132.00;10295919;28;97197;-81
2024/01/31 18:21:50;;;;;;;;;;;;;;;16.40;60.87;102127.97;10295426;28;96760;-80
2024/01/31 18:26:54;;;;;;;;;;;;;;;16.43;60.74;102135.00;10295365;28;97138;-81
2024/01/31 18:31:58;;;;;;;;;;;;;;;16.26;63.09;102145.25;10295561;28;97487;-81
2024/01/31 18:37:03;;;;;;;;;;;;;;;15.86;65.51;102150.97;10336053;28;97376;-80
2024/01/31 18:42:06;;;;;;;;;;;;;;;15.64;66.05;102150.78;10335829;28;96810;-80
2024/01/31 18:47:10;;;;;;;;;;;;;;;15.35;66.89;102142.81;10336149;28;96762;-81
2024/01/31 18:52:14;;;;;;;;;;;;;;;15.24;67.10;102150.16;10308220;28;97141;-80
2024/01/31 18:57:17;;;;;;;;;;;;;;;15.12;68.34;102160.25;10294366;28;97565;-81
2024/01/31 19:02:21;;;;;;;;;;;;;;;15.07;68.15;102162.16;10293019;28;96686;-81
2024/01/31 19:07:25;;;;;;;;;;;;;;;15.11;67.70;102171.78;10293568;28;97009;-81
2024/01/31 19:12:28;;;;;;;;;;;;;;;14.85;69.50;102171.63;10293938;28;96661;-80
2024/01/31 19:17:32;;;;;;;;;;;;;;;14.65;70.12;102175.66;10293325;28;96877;-81
2024/01/31 19:22:48;;;;;;;;;;;;;;;14.58;69.63;102178.50;10292950;28;98281;-80
2024/01/31 19:27:52;;;;;;;;;;;;;;;14.84;68.95;102181.34;10293533;28;97139;-81
2024/01/31 19:32:55;;;;;;;;;;;;;;;15.09;67.33;102185.09;10293103;28;96607;-81
2024/01/31 19:38:00;;;;;;;;;;;;;;;15.22;67.03;102189.13;10294036;28;97010;-80
2024/01/31 19:43:04;;;;;;;;;;;;;;;15.27;65.86;102187.25;10293682;28;97202;-80
2024/01/31 19:48:07;;;;;;;;;;;;;;;15.27;66.13;102203.16;10291647;28;96753;-81
2024/01/31 19:53:13;;;;;;;;;;;;;;;14.95;67.42;102204.91;10291568;28;97300;-79
2024/01/31 19:58:16;;;;;;;;;;;;;;;14.67;68.66;102204.78;10292735;28;97205;-80
2024/01/31 20:03:19;;;;;;;;;;;;;;;14.55;68.77;102213.03;10292034;28;97137;-79
2024/01/31 20:08:24;;;;;;;;;;;;;;;14.18;70.82;102217.44;10291617;28;96636;-80
2024/01/31 20:13:27;;;;;;;;;;;;;;;13.81;71.46;102216.50;10291537;28;96821;-80
2024/01/31 20:18:30;;;;;;;;;;;;;;;13.86;72.49;102218.16;10291352;28;96777;-79
2024/01/31 20:23:35;;;;;;;;;;;;;;;13.74;72.85;102231.66;10291584;28;97074;-80
2024/01/31 20:28:38;;;;;;;;;;;;;;;13.58;72.55;102228.47;10291713;28;97325;-80
2024/01/31 20:33:41;;;;;;;;;;;;;;;13.65;73.03;102235.38;10291829;28;97638;-80
2024/01/31 20:38:46;;;;;;;;;;;;;;;14.07;70.37;102232.72;10290935;28;96770;-80
2024/01/31 20:43:50;;;;;;;;;;;;;;;13.66;72.76;102234.44;10289961;28;96716;-80
2024/01/31 20:48:54;;;;;;;;;;;;;;;13.81;72.02;102246.50;10290950;28;97224;-79
2024/01/31 20:53:59;;;;;;;;;;;;;;;13.40;73.90;102249.97;10290891;28;96537;-80
2024/01/31 20:59:02;;;;;;;;;;;;;;;13.54;72.84;102252.34;10290120;28;96736;-80
2024/01/31 21:04:07;;;;;;;;;;;;;;;13.29;72.79;102251.94;10290217;28;97166;-81
2024/01/31 21:09:12;;;;;;;;;;;;;;;12.94;75.28;102259.66;10290759;28;96718;-80
2024/01/31 21:14:15;;;;;;;;;;;;;;;12.96;75.05;102262.28;10289706;28;96649;-81
2024/01/31 21:19:19;;;;;;;;;;;;;;;12.96;75.11;102278.13;10290347;28;97124;-80
2024/01/31 21:24:24;;;;;;;;;;;;;;;12.89;75.71;102274.72;10289724;28;96841;-80
2024/01/31 21:29:27;;;;;;;;;;;;;;;12.85;75.71;102272.13;10288751;28;96971;-81
2024/01/31 21:34:30;;;;;;;;;;;;;;;13.18;74.30;102282.13;10288391;28;96618;-79
2024/01/31 21:39:35;;;;;;;;;;;;;;;13.44;73.50;102285.16;10308898;28;97206;-80
2024/01/31 21:44:39;;;;;;;;;;;;;;;13.56;73.20;102285.81;10288632;28;96639;-80
2024/01/31 21:49:42;;;;;;;;;;;;;;;13.69;72.25;102275.88;10289002;28;96766;-79
2024/01/31 21:54:46;;;;;;;;;;;;;;;13.57;72.62;102276.09;10288961;28;97106;-80
2024/01/31 21:59:51;;;;;;;;;;;;;;;13.30;73.13;102277.50;10320669;28;96755;-79
2024/01/31 22:04:54;;;;;;;;;;;;;;;13.31;73.49;102281.88;10312618;28;96708;-80
2024/01/31 22:09:59;;;;;;;;;;;;;;;13.49;73.13;102278.88;10289075;28;96692;-81
2024/01/31 22:15:04;;;;;;;;;;;;;;;13.54;72.78;102284.97;10305532;28;96863;-81
2024/01/31 22:20:09;;;;;;;;;;;;;;;13.56;72.29;102282.28;10329033;28;96753;-80
2024/01/31 22:25:14;;;;;;;;;;;;;;;13.52;72.44;102292.06;10328044;28;96650;-81
2024/01/31 22:30:17;;;;;;;;;;;;;;;13.50;72.78;102293.84;10327702;28;96822;-81
2024/01/31 22:35:21;;;;;;;;;;;;;;;13.49;72.58;102300.06;10329035;28;97436;-80
2024/01/31 22:40:27;;;;;;;;;;;;;;;13.44;72.54;102314.25;10329682;28;96691;-81
2024/01/31 22:45:31;;;;;;;;;;;;;;;13.44;72.64;102317.78;10335633;28;97199;-81
2024/01/31 22:50:35;;;;;;;;;;;;;;;13.46;72.65;102326.56;10305214;28;96957;-80
2024/01/31 22:55:40;;;;;;;;;;;;;;;13.44;72.79;102320.44;10294377;28;96655;-80
2024/01/31 23:00:43;;;;;;;;;;;;;;;13.39;73.05;102322.28;10294950;28;97113;-80
2024/01/31 23:05:46;;;;;;;;;;;;;;;13.37;73.70;102332.00;10294525;28;96791;-80
2024/01/31 23:10:51;;;;;;;;;;;;;;;13.29;73.55;102339.19;10294335;28;97801;-80
2024/01/31 23:15:54;;;;;;;;;;;;;;;13.29;73.39;102340.97;10292019;28;97059;-79
2024/01/31 23:20:58;;;;;;;;;;;;;;;13.24;73.44;102329.63;10294123;28;97000;-80
2024/01/31 23:26:03;;;;;;;;;;;;;;;13.15;73.20;102325.38;10293308;28;97376;-79
2024/01/31 23:31:08;;;;;;;;;;;;;;;13.08;73.58;102339.59;10293274;28;97194;-80
2024/01/31 23:36:11;;;;;;;;;;;;;;;13.00;74.39;102338.81;10325865;28;97390;-80
2024/01/31 23:41:16;;;;;;;;;;;;;;;12.85;74.21;102336.44;10306579;28;97015;-79
2024/01/31 23:46:19;;;;;;;;;;;;;;;12.87;74.03;102353.13;10291878;28;97054;-81
2024/01/31 23:51:23;;;;;;;;;;;;;;;12.85;74.14;102343.47;10293293;28;96756;-80
2024/01/31 23:56:27;;;;;;;;;;;;;;;12.79;74.22;102349.72;10292636;28;97317;-80
